createdAt,value
2019-02-18T00:01:56.823Z,35.63
2019-02-18T00:05:02.612Z,34.67
2019-02-18T00:08:09.789Z,36.07
2019-02-18T00:11:15.574Z,37.10
2019-02-18T00:14:21.375Z,37.33
2019-02-18T00:17:27.158Z,36.87
2019-02-18T00:20:32.975Z,37.20
2019-02-18T00:23:38.790Z,36.03
2019-02-18T00:26:44.601Z,36.93
2019-02-18T00:29:50.360Z,35.30
2019-02-18T00:32:56.165Z,36.73
2019-02-18T00:36:01.920Z,31.93
2019-02-18T00:39:07.919Z,34.00
2019-02-18T00:42:13.797Z,26.90
2019-02-18T00:45:19.675Z,28.70
2019-02-18T00:48:25.462Z,25.67
2019-02-18T00:51:31.327Z,24.93
2019-02-18T00:54:37.107Z,30.53
2019-02-18T00:57:42.973Z,30.37
2019-02-18T01:00:48.745Z,29.97
2019-02-18T01:03:54.504Z,28.20
2019-02-18T01:07:00.313Z,28.87
2019-02-18T01:10:06.698Z,35.37
2019-02-18T01:13:12.548Z,30.50
2019-02-18T01:16:18.312Z,30.70
2019-02-18T01:19:24.281Z,28.17
2019-02-18T01:22:30.093Z,25.40
2019-02-18T01:25:35.903Z,28.93
2019-02-18T01:28:41.688Z,26.43
2019-02-18T01:31:47.563Z,30.50
2019-02-18T01:34:53.350Z,27.23
2019-02-18T01:37:59.125Z,26.20
2019-02-18T01:41:05.012Z,24.80
2019-02-18T01:44:10.776Z,25.90
2019-02-18T01:47:16.548Z,26.33
2019-02-18T01:50:22.824Z,25.13
2019-02-18T01:53:28.629Z,24.60
2019-02-18T01:56:34.401Z,25.47
2019-02-18T01:59:40.173Z,25.50
2019-02-18T02:02:45.938Z,24.77
2019-02-18T02:05:51.795Z,25.20
2019-02-18T02:08:57.700Z,24.83
2019-02-18T02:12:03.520Z,37.07
2019-02-18T02:15:12.592Z,52.87
2019-02-18T02:18:19.421Z,37.57
2019-02-18T02:21:25.183Z,30.10
2019-02-18T02:24:31.020Z,23.63
2019-02-18T02:27:36.792Z,25.73
2019-02-18T02:30:42.590Z,24.27
2019-02-18T02:33:49.450Z,24.40
2019-02-18T02:36:55.258Z,21.53
2019-02-18T02:40:01.042Z,31.73
2019-02-18T02:43:07.501Z,30.40
2019-02-18T02:46:13.263Z,23.03
2019-02-18T02:49:19.043Z,23.10
2019-02-18T02:52:24.828Z,22.53
2019-02-18T02:55:30.630Z,21.80
2019-02-18T02:58:36.426Z,21.63
2019-02-18T03:01:42.201Z,19.27
2019-02-18T03:04:47.983Z,19.60
2019-02-18T03:07:53.872Z,20.03
2019-02-18T03:10:59.636Z,21.13
2019-02-18T03:14:05.468Z,21.93
2019-02-18T03:17:11.246Z,21.27
2019-02-18T03:20:17.059Z,21.30
2019-02-18T03:23:22.936Z,22.10
2019-02-18T03:26:28.817Z,21.83
2019-02-18T03:30:13.963Z,21.17
2019-02-18T03:33:40.571Z,20.30
2019-02-18T03:36:46.446Z,20.87
2019-02-18T03:39:52.250Z,20.63
2019-02-18T03:42:58.046Z,20.57
2019-02-18T03:46:03.936Z,19.97
2019-02-18T03:49:09.716Z,19.77
2019-02-18T03:52:15.605Z,20.83
2019-02-18T03:55:21.396Z,20.97
2019-02-18T03:58:27.271Z,19.87
2019-02-18T04:01:33.268Z,19.10
2019-02-18T04:04:39.050Z,19.60
2019-02-18T04:07:44.828Z,18.73
2019-02-18T04:10:50.623Z,21.60
2019-02-18T04:13:56.442Z,19.83
2019-02-18T04:17:02.333Z,20.40
2019-02-18T04:20:08.342Z,19.00
2019-02-18T04:23:14.169Z,17.43
2019-02-18T04:26:20.164Z,18.27
2019-02-18T04:29:26.131Z,17.87
2019-02-18T04:32:31.943Z,21.37
2019-02-18T04:35:37.765Z,18.50
2019-02-18T04:38:53.856Z,17.87
2019-02-18T04:41:51.021Z,19.10
2019-02-18T04:44:56.846Z,21.53
2019-02-18T04:48:02.636Z,20.30
2019-02-18T04:51:08.419Z,19.30
2019-02-18T04:54:14.210Z,19.63
2019-02-18T04:57:20.008Z,18.60
2019-02-18T05:00:25.809Z,17.10
2019-02-18T05:03:32.197Z,16.57
2019-02-18T05:06:38.086Z,15.87
2019-02-18T05:09:43.867Z,17.30
2019-02-18T05:12:50.600Z,20.13
2019-02-18T05:15:57.995Z,19.10
2019-02-18T05:19:06.678Z,18.20
2019-02-18T05:22:12.448Z,19.93
2019-02-18T05:25:18.255Z,19.87
2019-02-18T05:28:24.055Z,18.53
2019-02-18T05:31:29.887Z,18.67
2019-02-18T05:34:36.730Z,18.70
2019-02-18T05:37:42.519Z,17.47
2019-02-18T05:40:48.289Z,18.43
2019-02-18T05:43:54.216Z,17.93
2019-02-18T05:46:59.990Z,18.07
2019-02-18T05:50:05.996Z,18.87
2019-02-18T05:53:11.777Z,18.57
2019-02-18T05:56:18.661Z,17.67
2019-02-18T05:59:24.454Z,17.23
2019-02-18T06:02:30.272Z,19.80
2019-02-18T06:05:36.073Z,17.37
2019-02-18T06:08:41.934Z,18.57
2019-02-18T06:11:47.690Z,20.00
2019-02-18T06:14:53.500Z,19.00
2019-02-18T06:17:59.277Z,18.47
2019-02-18T06:21:05.126Z,17.10
2019-02-18T06:24:10.982Z,16.23
2019-02-18T06:27:18.374Z,16.00
2019-02-18T06:30:24.150Z,15.17
2019-02-18T06:33:29.989Z,16.37
2019-02-18T06:36:35.774Z,18.57
2019-02-18T06:39:42.137Z,15.93
2019-02-18T06:42:48.031Z,16.07
2019-02-18T06:46:01.070Z,17.70
2019-02-18T06:49:12.677Z,19.07
2019-02-18T06:52:19.288Z,22.77
2019-02-18T06:55:25.169Z,23.40
2019-02-18T06:58:43.806Z,25.80
2019-02-18T07:02:00.415Z,27.57
2019-02-18T07:05:21.572Z,30.27
2019-02-18T07:08:46.799Z,28.47
2019-02-18T07:12:11.521Z,30.33
2019-02-18T07:15:17.426Z,41.17
2019-02-18T07:18:23.240Z,26.63
2019-02-18T07:21:29.025Z,28.73
2019-02-18T07:24:34.947Z,25.83
2019-02-18T07:27:40.704Z,26.17
2019-02-18T07:30:46.537Z,33.77
2019-02-18T07:33:52.366Z,52.87
2019-02-18T07:36:58.214Z,48.03
2019-02-18T07:40:04.113Z,37.77
2019-02-18T07:43:09.945Z,25.67
2019-02-18T07:46:15.723Z,25.43
2019-02-18T07:49:21.511Z,23.40
2019-02-18T07:52:27.334Z,23.87
2019-02-18T07:55:33.228Z,25.27
2019-02-18T07:58:39.018Z,26.07
2019-02-18T08:01:44.958Z,26.40
2019-02-18T08:04:50.715Z,28.60
2019-02-18T08:07:56.484Z,29.50
2019-02-18T08:11:02.245Z,26.20
2019-02-18T08:14:08.031Z,25.43
2019-02-18T08:17:13.861Z,22.30
2019-02-18T08:20:19.633Z,20.93
2019-02-18T08:23:25.381Z,18.63
2019-02-18T08:26:31.264Z,20.17
2019-02-18T08:29:37.025Z,21.00
2019-02-18T08:32:43.884Z,22.03
2019-02-18T08:35:49.742Z,21.03
2019-02-18T08:38:55.563Z,22.03
2019-02-18T08:42:01.425Z,17.77
2019-02-18T08:45:08.997Z,14.43
2019-02-18T08:48:14.810Z,13.83
2019-02-18T08:51:20.616Z,13.30
2019-02-18T08:54:26.402Z,11.70
2019-02-18T08:57:32.296Z,12.30
2019-02-18T09:00:38.211Z,13.20
2019-02-18T09:03:44.032Z,13.20
2019-02-18T09:06:49.870Z,12.97
2019-02-18T09:09:55.649Z,13.47
2019-02-18T09:13:01.483Z,13.17
2019-02-18T09:16:07.467Z,13.07
2019-02-18T09:19:13.273Z,13.07
2019-02-18T09:22:51.314Z,13.37
2019-02-18T09:25:59.747Z,13.83
2019-02-18T09:29:05.534Z,15.97
2019-02-18T09:32:11.302Z,14.93
2019-02-18T09:35:17.189Z,15.53
2019-02-18T09:38:25.303Z,15.23
2019-02-18T09:41:30.764Z,15.37
2019-02-18T09:44:36.916Z,15.20
2019-02-18T09:47:42.784Z,15.47
2019-02-18T09:50:48.790Z,16.27
2019-02-18T09:53:54.576Z,15.70
2019-02-18T09:57:00.505Z,15.10
2019-02-18T10:00:07.369Z,14.27
2019-02-18T10:03:13.301Z,16.43
2019-02-18T10:06:20.112Z,16.73
2019-02-18T10:09:25.929Z,14.60
2019-02-18T10:12:31.907Z,13.47
2019-02-18T10:15:37.813Z,14.13
2019-02-18T10:18:43.759Z,15.57
2019-02-18T10:21:49.565Z,15.43
2019-02-18T10:24:55.424Z,14.17
2019-02-18T10:28:02.000Z,13.50
2019-02-18T10:31:07.805Z,14.33
2019-02-18T10:34:13.641Z,14.53
2019-02-18T10:37:19.531Z,14.03
2019-02-18T10:40:25.346Z,13.53
2019-02-18T10:43:32.682Z,14.33
2019-02-18T10:46:40.686Z,13.53
2019-02-18T10:49:46.624Z,13.27
2019-02-18T10:52:52.469Z,12.93
2019-02-18T10:55:58.611Z,13.37
2019-02-18T10:59:04.508Z,12.77
2019-02-18T11:02:10.393Z,14.30
2019-02-18T11:05:16.306Z,13.20
2019-02-18T11:08:22.126Z,11.97
2019-02-18T11:11:27.894Z,12.20
2019-02-18T11:14:33.873Z,20.33
2019-02-18T11:17:39.633Z,13.53
2019-02-18T11:20:45.567Z,12.47
2019-02-18T11:23:51.337Z,10.70
2019-02-18T11:26:57.154Z,10.27
2019-02-18T11:30:03.057Z,11.50
2019-02-18T11:33:09.858Z,10.97
2019-02-18T11:36:15.718Z,10.73
2019-02-18T11:39:21.622Z,11.47
2019-02-18T11:42:27.500Z,10.87
2019-02-18T11:45:34.887Z,11.57
2019-02-18T11:48:41.049Z,10.77
2019-02-18T11:51:46.843Z,10.30
2019-02-18T11:54:53.022Z,11.20
2019-02-18T11:57:58.833Z,12.33
2019-02-18T12:01:04.805Z,11.60
2019-02-18T12:04:10.688Z,11.23
2019-02-18T12:07:16.462Z,11.77
2019-02-18T12:10:22.279Z,10.70
2019-02-18T12:13:28.063Z,10.37
2019-02-18T12:16:33.985Z,10.83
2019-02-18T12:19:39.797Z,10.83
2019-02-18T12:22:45.615Z,9.93
2019-02-18T12:25:51.513Z,9.13
2019-02-18T12:28:57.380Z,10.30
2019-02-18T12:32:03.157Z,7.77
2019-02-18T12:35:09.181Z,8.20
2019-02-18T12:38:17.336Z,8.93
2019-02-18T12:41:22.452Z,8.77
2019-02-18T12:44:28.249Z,10.40
2019-02-18T12:47:34.167Z,9.50
2019-02-18T12:50:39.988Z,8.67
2019-02-18T12:53:46.471Z,10.30
2019-02-18T12:56:52.534Z,8.73
2019-02-18T12:59:58.698Z,13.20
2019-02-18T13:03:05.177Z,7.67
2019-02-18T13:06:11.075Z,8.57
2019-02-18T13:09:16.879Z,10.50
2019-02-18T13:12:22.795Z,8.53
2019-02-18T13:15:28.567Z,9.03
2019-02-18T13:18:34.438Z,6.63
2019-02-18T13:21:40.231Z,7.23
2019-02-18T13:24:46.094Z,7.63
2019-02-18T13:27:51.876Z,23.17
2019-02-18T13:30:57.645Z,7.07
2019-02-18T13:34:05.270Z,5.67
2019-02-18T13:37:13.175Z,9.20
2019-02-18T13:40:18.929Z,7.03
2019-02-18T13:43:30.092Z,4.37
2019-02-18T13:46:35.955Z,6.53
2019-02-18T13:49:42.138Z,7.73
2019-02-18T13:52:48.150Z,7.20
2019-02-18T13:55:54.020Z,8.50
2019-02-18T13:58:59.892Z,7.87
2019-02-18T14:02:06.075Z,5.77
2019-02-18T14:05:12.337Z,6.37
2019-02-18T14:08:18.188Z,5.70
2019-02-18T14:11:24.060Z,5.30
2019-02-18T14:14:29.812Z,5.90
2019-02-18T14:17:35.561Z,7.63
2019-02-18T14:20:41.509Z,7.07
2019-02-18T14:23:47.307Z,9.27
2019-02-18T14:26:53.108Z,5.73
2019-02-18T14:29:58.883Z,5.33
2019-02-18T14:33:04.763Z,5.57
2019-02-18T14:36:10.987Z,11.87
2019-02-18T14:39:24.190Z,11.43
2019-02-18T14:42:34.948Z,8.20
2019-02-18T14:45:40.584Z,11.77
2019-02-18T14:48:46.855Z,10.07
2019-02-18T14:51:53.156Z,12.90
2019-02-18T14:54:59.356Z,21.70
2019-02-18T14:58:05.874Z,9.03
2019-02-18T15:01:12.225Z,7.97
2019-02-18T15:04:18.101Z,8.87
2019-02-18T15:07:24.043Z,10.93
2019-02-18T15:10:29.879Z,13.23
2019-02-18T15:13:35.765Z,12.43
2019-02-18T15:16:41.597Z,12.57
2019-02-18T15:19:47.654Z,12.67
2019-02-18T15:22:53.456Z,12.53
2019-02-18T15:25:59.223Z,14.17
2019-02-18T15:29:05.110Z,15.67
2019-02-18T15:32:11.009Z,44.47
2019-02-18T15:35:16.985Z,23.50
2019-02-18T15:38:22.895Z,17.90
2019-02-18T15:41:28.878Z,36.03
2019-02-18T15:44:34.692Z,30.00
2019-02-18T15:47:40.561Z,24.33
2019-02-18T15:50:46.845Z,27.43
2019-02-18T15:53:52.880Z,27.37
2019-02-18T15:56:58.786Z,26.37
2019-02-18T16:00:05.004Z,24.97
2019-02-18T16:03:12.445Z,24.60
2019-02-18T16:06:18.442Z,26.70
2019-02-18T16:09:24.217Z,34.03
2019-02-18T16:12:30.106Z,33.57
2019-02-18T16:15:35.884Z,33.73
2019-02-18T16:18:41.790Z,34.93
2019-02-18T16:21:47.994Z,33.90
2019-02-18T16:24:53.802Z,34.57
2019-02-18T16:27:59.615Z,34.43
2019-02-18T16:31:05.523Z,36.70
2019-02-18T16:34:11.333Z,35.57
2019-02-18T16:37:17.169Z,34.53
2019-02-18T16:40:23.975Z,35.17
2019-02-18T16:43:29.760Z,39.83
2019-02-18T16:46:35.576Z,46.47
2019-02-18T16:49:41.713Z,58.10
2019-02-18T16:52:48.080Z,69.67
2019-02-18T16:55:53.944Z,36.20
2019-02-18T16:58:59.730Z,32.10
2019-02-18T17:02:05.764Z,48.37
2019-02-18T17:05:11.637Z,63.60
2019-02-18T17:08:17.463Z,59.20
2019-02-18T17:11:23.319Z,45.37
2019-02-18T17:14:29.145Z,43.47
2019-02-18T17:17:34.963Z,64.20
2019-02-18T17:20:40.754Z,63.10
2019-02-18T17:23:46.780Z,63.97
2019-02-18T17:26:52.645Z,97.70
2019-02-18T17:29:58.398Z,88.83
2019-02-18T17:33:06.862Z,95.13
2019-02-18T17:36:12.622Z,70.17
2019-02-18T17:39:19.507Z,61.00
2019-02-18T17:42:25.302Z,55.30
2019-02-18T17:45:31.265Z,47.70
2019-02-18T17:48:37.157Z,44.07
2019-02-18T17:51:43.131Z,47.03
2019-02-18T17:54:49.411Z,40.40
2019-02-18T17:57:55.188Z,37.57
2019-02-18T18:01:01.179Z,37.23
2019-02-18T18:04:08.079Z,59.23
2019-02-18T18:07:14.069Z,62.50
2019-02-18T18:10:20.025Z,52.73
2019-02-18T18:13:26.737Z,55.20
2019-02-18T18:16:32.614Z,59.87
2019-02-18T18:19:38.405Z,61.23
2019-02-18T18:22:44.386Z,59.97
2019-02-18T18:25:50.549Z,60.70
2019-02-18T18:28:56.442Z,65.57
2019-02-18T18:32:02.430Z,60.80
2019-02-18T18:35:10.389Z,62.03
2019-02-18T18:38:16.183Z,54.37
2019-02-18T18:41:21.997Z,70.43
2019-02-18T18:44:27.813Z,81.93
2019-02-18T18:47:33.673Z,78.23
2019-02-18T18:50:39.481Z,68.20
2019-02-18T18:53:45.261Z,77.57
2019-02-18T18:56:51.152Z,67.60
2019-02-18T18:59:58.006Z,55.83
2019-02-18T19:03:03.825Z,51.50
2019-02-18T19:06:09.705Z,49.73
2019-02-18T19:09:15.504Z,47.17
2019-02-18T19:12:21.304Z,46.90
2019-02-18T19:15:28.654Z,47.27
2019-02-18T19:18:34.643Z,47.53
2019-02-18T19:21:40.575Z,48.90
2019-02-18T19:24:46.739Z,47.07
2019-02-18T19:27:52.784Z,50.30
2019-02-18T19:30:58.593Z,49.77
2019-02-18T19:34:04.433Z,52.03
2019-02-18T19:37:10.257Z,56.93
2019-02-18T19:40:16.592Z,58.80
2019-02-18T19:43:22.681Z,55.00
2019-02-18T19:46:28.491Z,52.63
2019-02-18T19:49:34.301Z,55.13
2019-02-18T19:52:40.116Z,54.87
2019-02-18T19:55:46.047Z,55.93
2019-02-18T19:58:51.815Z,57.93
2019-02-18T20:01:57.678Z,51.67
2019-02-18T20:05:03.579Z,53.03
2019-02-18T20:08:09.399Z,60.80
2019-02-18T20:11:15.396Z,53.27
2019-02-18T20:14:21.232Z,39.27
2019-02-18T20:17:27.114Z,32.93
2019-02-18T20:20:32.969Z,36.90
2019-02-18T20:23:38.776Z,46.90
2019-02-18T20:26:44.639Z,45.13
2019-02-18T20:29:51.541Z,44.27
2019-02-18T20:32:57.633Z,50.50
2019-02-18T20:36:03.450Z,49.87
2019-02-18T20:39:09.956Z,47.93
2019-02-18T20:42:17.056Z,50.30
2019-02-18T20:45:22.960Z,55.00
2019-02-18T20:48:30.230Z,60.87
2019-02-18T20:51:36.108Z,62.93
2019-02-18T20:54:41.932Z,65.03
2019-02-18T20:57:50.761Z,64.77
2019-02-18T21:00:56.807Z,67.73
2019-02-18T21:04:02.833Z,65.10
2019-02-18T21:07:08.903Z,62.70
2019-02-18T21:10:15.198Z,63.57
2019-02-18T21:13:21.132Z,59.03
2019-02-18T21:16:26.930Z,52.93
2019-02-18T21:19:32.754Z,53.23
2019-02-18T21:22:38.520Z,46.37
2019-02-18T21:25:44.908Z,44.07
2019-02-18T21:28:50.688Z,39.97
2019-02-18T21:31:56.470Z,39.40
2019-02-18T21:35:02.298Z,39.90
2019-02-18T21:38:08.061Z,37.60
2019-02-18T21:41:13.836Z,38.53
2019-02-18T21:44:25.157Z,36.87
2019-02-18T21:47:28.181Z,37.07
2019-02-18T21:50:33.960Z,34.67
2019-02-18T21:53:39.737Z,32.10
2019-02-18T21:56:45.545Z,28.17
2019-02-18T21:59:51.443Z,27.37
2019-02-18T22:02:57.213Z,27.20
2019-02-18T22:06:03.082Z,25.40
2019-02-18T22:09:09.045Z,25.00
2019-02-18T22:12:15.481Z,24.00
2019-02-18T22:15:21.299Z,24.10
2019-02-18T22:18:27.100Z,22.27
2019-02-18T22:21:32.907Z,23.23
2019-02-18T22:24:38.700Z,23.73
2019-02-18T22:27:46.352Z,24.43
2019-02-18T22:30:52.140Z,24.87
2019-02-18T22:33:57.930Z,24.27
2019-02-18T22:37:04.177Z,26.40
2019-02-18T22:40:10.090Z,26.30
2019-02-18T22:43:15.885Z,27.37
2019-02-18T22:46:21.753Z,29.40
2019-02-18T22:49:27.530Z,31.53
2019-02-18T22:52:33.363Z,34.43
2019-02-18T22:55:39.208Z,38.97
2019-02-18T22:58:44.986Z,38.47
2019-02-18T23:01:50.866Z,38.20
2019-02-18T23:04:56.646Z,40.63
2019-02-18T23:08:02.549Z,37.43
2019-02-18T23:11:08.422Z,36.20
2019-02-18T23:14:14.200Z,35.67
2019-02-18T23:17:20.030Z,33.00
2019-02-18T23:20:25.788Z,34.90
2019-02-18T23:23:31.570Z,33.43
2019-02-18T23:26:37.805Z,36.30
2019-02-18T23:29:43.572Z,35.70
2019-02-18T23:32:49.339Z,41.93
2019-02-18T23:35:55.115Z,36.30
2019-02-18T23:39:00.930Z,35.57
2019-02-18T23:42:08.363Z,36.03
2019-02-18T23:45:14.253Z,36.30
2019-02-18T23:48:20.065Z,34.03
2019-02-18T23:51:26.955Z,35.87
2019-02-18T23:54:33.719Z,33.83
2019-02-18T23:57:39.491Z,33.80
